Time;durP1;ratioP1;P1;durP2;ratioP2;P2;SDS_P1;SDS_P2;PMS_P1;PMS_P2;Temp;Humidity;BMP_temperature;BMP_pressure;BME280_temperature;BME280_humidity;BME280_pressure;Samples;Min_cycle;Max_cycle;Signal;HPM_P1;HPM_P2
2023/04/12 00:00:29;;;;;;;6.35;2.30;;;;;;;8.79;90.70;100494.44;4988586;28;20410;-92
2023/04/12 00:03:11;;;;;;;;;;;;;;;;;;;;;
2023/04/12 00:05:45;;;;;;;7.00;2.33;;;;;;;8.70;91.56;100452.16;5002885;28;20118;-90
2023/04/12 00:08:13;;;;;;;5.20;1.92;;;;;;;8.74;91.35;100461.88;4986006;28;20041;-90
2023/04/12 00:10:46;;;;;;;7.03;2.28;;;;;;;8.71;92.33;100444.28;4987788;28;20026;-91
2023/04/12 00:13:21;;;;;;;5.40;2.00;;;;;;;8.73;92.33;100450.44;5003227;28;20029;-91
2023/04/12 00:15:51;;;;;;;4.93;2.00;;;;;;;8.64;91.39;100415.19;4986534;28;20031;-91
2023/04/12 00:18:23;;;;;;;7.40;2.28;;;;;;;8.69;93.09;100424.94;5003009;28;20038;-90
2023/04/12 00:20:54;;;;;;;9.05;2.30;;;;;;;8.64;92.14;100423.09;4970731;28;20076;-90
2023/04/12 00:23:20;;;;;;;7.15;2.38;;;;;;;8.67;93.76;100436.31;4990233;28;20044;-90
2023/04/12 00:25:45;;;;;;;8.38;2.35;;;;;;;8.60;93.56;100408.13;5006919;28;20026;-90
2023/04/12 00:28:11;;;;;;;5.80;2.17;;;;;;;8.54;94.32;100387.88;4990234;28;20035;-90
2023/04/12 00:30:36;;;;;;;7.25;2.30;;;;;;;8.65;94.58;100404.72;5004449;28;20022;-91
2023/04/12 00:33:02;;;;;;;8.00;2.17;;;;;;;8.55;94.18;100394.03;4963681;28;20061;-91
2023/04/12 00:35:27;;;;;;;6.47;2.20;;;;;;;8.50;95.39;100376.44;4996873;28;20022;-90
2023/04/12 00:37:53;;;;;;;9.82;2.50;;;;;;;8.44;95.54;100354.44;4996986;28;20056;-90
2023/04/12 00:40:19;;;;;;;5.63;2.20;;;;;;;8.50;95.40;100378.19;4979246;28;20370;-90
2023/04/12 00:42:45;;;;;;;4.90;2.38;;;;;;;8.43;96.48;100358.78;4997039;28;20462;-90
2023/04/12 00:45:11;;;;;;;7.07;2.17;;;;;;;8.46;96.19;100364.09;4996551;28;20027;-90
2023/04/12 00:47:37;;;;;;;6.60;2.28;;;;;;;8.39;96.95;100351.72;4996011;28;20042;-90
2023/04/12 00:50:07;;;;;;;8.57;2.70;;;;;;;8.37;96.73;100342.94;4978910;28;20034;-90
2023/04/12 00:52:36;;;;;;;5.80;2.15;;;;;;;8.25;96.92;100322.56;4979027;28;20026;-90
2023/04/12 00:55:06;;;;;;;6.38;2.00;;;;;;;8.41;96.93;100347.38;4997019;28;20101;-90
2023/04/12 00:57:37;;;;;;;7.90;2.45;;;;;;;8.28;97.20;100319.97;4978941;28;20050;-90
2023/04/12 01:00:07;;;;;;;9.45;2.50;;;;;;;8.27;96.65;100326.13;4996023;28;20463;-89
2023/04/12 01:02:34;;;;;;;9.57;2.58;;;;;;;8.25;97.17;100298.88;4978628;28;20056;-90
2023/04/12 01:05:01;;;;;;;7.35;2.30;;;;;;;8.24;97.98;100294.50;4995854;28;20058;-90
2023/04/12 01:08:04;;;;;;;4.78;2.20;;;;;;;8.39;97.07;100316.59;4962559;28;20030;-90
2023/04/12 01:11:06;;;;;;;4.30;2.30;;;;;;;8.38;97.52;100296.41;4996044;28;20050;-90
2023/04/12 01:13:57;;;;;;;7.22;2.58;;;;;;;8.37;97.38;100292.91;4994107;28;20057;-90
2023/04/12 01:16:46;;;;;;;6.00;2.30;;;;;;;8.36;98.12;100277.97;4991692;28;20459;-90
2023/04/12 01:19:35;;;;;;;5.30;2.20;;;;;;;8.32;98.03;100272.66;4995351;28;20026;-90
2023/04/12 01:22:16;;;;;;;7.80;2.35;;;;;;;8.34;98.33;100255.97;4996043;28;20081;-90
2023/04/12 01:24:54;;;;;;;8.75;2.38;;;;;;;8.30;98.63;100248.91;4996114;28;20069;-90
2023/04/12 01:27:36;;;;;;;5.15;2.45;;;;;;;8.24;99.11;100236.59;4995809;28;20027;-90
2023/04/12 01:30:03;;;;;;;8.98;2.42;;;;;;;8.16;99.29;100217.19;4995670;28;20068;-90
2023/04/12 01:32:30;;;;;;;10.55;2.90;;;;;;;8.18;99.56;100220.75;4995882;28;20033;-90
2023/04/12 01:35:01;;;;;;;5.60;2.22;;;;;;;8.24;99.44;100212.03;4978144;28;20414;-90
2023/04/12 01:37:26;;;;;;;8.25;2.40;;;;;;;8.20;100.00;100216.38;4977819;28;20030;-90
2023/04/12 01:39:52;;;;;;;7.07;2.40;;;;;;;8.16;99.67;100197.91;4978469;28;20084;-90
2023/04/12 01:42:19;;;;;;;8.80;2.47;;;;;;;8.17;100.00;100197.91;4977946;28;20499;-90
2023/04/12 01:44:47;;;;;;;8.00;2.50;;;;;;;8.19;100.00;100174.25;4995511;28;20418;-90
2023/04/12 01:47:13;;;;;;;8.60;2.80;;;;;;;8.19;99.74;100188.28;4961535;28;20391;-90
2023/04/12 01:49:55;;;;;;;6.93;2.20;;;;;;;8.17;99.82;100181.25;4978013;28;20035;-90
2023/04/12 01:52:25;;;;;;;5.97;2.40;;;;;;;8.17;99.11;100170.72;4977892;28;20443;-90
2023/04/12 01:54:56;;;;;;;7.57;2.30;;;;;;;8.14;99.83;100178.59;4993901;28;20517;-91
2023/04/12 01:57:22;;;;;;;6.50;2.30;;;;;;;8.14;99.92;100166.31;4995694;28;20077;-90
2023/04/12 01:59:50;;;;;;;5.88;2.33;;;;;;;8.11;99.79;100155.75;4961637;28;20490;-90
2023/04/12 02:02:16;;;;;;;7.60;2.50;;;;;;;8.15;98.87;100152.28;4977699;28;20084;-90
2023/04/12 02:04:43;;;;;;;5.82;2.20;;;;;;;8.15;99.32;100140.88;4977522;28;20038;-90
2023/04/12 02:07:10;;;;;;;5.97;2.40;;;;;;;8.15;99.72;100123.34;4995294;28;20375;-90
2023/04/12 02:09:37;;;;;;;6.30;2.30;;;;;;;8.13;99.10;100113.66;4977776;28;20042;-90
2023/04/12 02:12:03;;;;;;;9.25;2.42;;;;;;;8.16;99.44;100113.69;4994791;28;20336;-91
2023/04/12 02:14:30;;;;;;;12.43;2.30;;;;;;;8.20;98.39;100119.00;4977086;28;20033;-90
2023/04/12 02:16:56;;;;;;;9.82;2.45;;;;;;;8.13;99.07;100103.13;4976971;28;20222;-90
2023/04/12 02:19:22;;;;;;;5.80;2.22;;;;;;;8.15;98.88;100096.16;4977283;28;20125;-90
2023/04/12 02:21:48;;;;;;;8.32;2.40;;;;;;;8.14;99.38;100121.59;4977319;28;20069;-90
2023/04/12 02:24:14;;;;;;;8.15;2.55;;;;;;;8.08;99.27;100084.69;4977240;28;20037;-90
2023/04/12 02:26:40;;;;;;;5.93;2.25;;;;;;;8.08;99.47;100071.53;4994616;28;20030;-90
2023/04/12 02:29:08;;;;;;;5.47;2.20;;;;;;;8.12;98.65;100068.03;4995087;28;20363;-90
2023/04/12 02:31:35;;;;;;;6.28;2.30;;;;;;;8.14;98.79;100061.06;4976683;28;20022;-90
2023/04/12 02:34:01;;;;;;;8.65;2.30;;;;;;;8.09;99.13;100067.13;4961414;28;20121;-91
2023/04/12 02:36:26;;;;;;;8.50;2.40;;;;;;;7.99;99.28;100030.22;4977142;28;20072;-91
2023/04/12 02:38:53;;;;;;;5.70;2.50;;;;;;;7.98;99.23;100028.47;4994536;28;20035;-91
2023/04/12 02:41:22;;;;;;;8.30;2.38;;;;;;;8.10;98.41;100059.28;4977062;28;20121;-90
2023/04/12 02:43:48;;;;;;;6.65;2.00;;;;;;;8.12;98.48;100033.84;4994725;28;20409;-90
2023/04/12 02:46:16;;;;;;;5.55;2.10;;;;;;;8.10;98.79;100025.06;4977124;28;20172;-90
2023/04/12 02:48:42;;;;;;;6.05;2.40;;;;;;;8.08;98.24;100000.47;4977130;28;20130;-90
2023/04/12 02:51:07;;;;;;;4.95;2.08;;;;;;;8.03;98.87;99994.31;4995583;28;20474;-90
2023/04/12 02:53:32;;;;;;;5.63;2.20;;;;;;;8.09;99.21;100007.50;4977093;28;20037;-89
2023/04/12 02:56:00;;;;;;;8.02;2.45;;;;;;;8.09;99.03;100004.88;4994172;28;20464;-90
2023/04/12 02:58:26;;;;;;;7.20;2.15;;;;;;;8.06;98.97;100001.34;4994360;28;20033;-90
2023/04/12 03:00:51;;;;;;;4.38;2.40;;;;;;;8.10;98.68;99985.59;4977140;28;20064;-89
2023/04/12 03:03:17;;;;;;;5.88;1.88;;;;;;;8.03;98.89;99971.50;4994296;28;20034;-89
2023/04/12 03:05:46;;;;;;;5.53;1.92;;;;;;;8.10;98.16;99971.56;4976652;28;20032;-90
2023/04/12 03:08:12;;;;;;;7.75;2.20;;;;;;;8.08;98.88;99953.13;4994520;28;20034;-90
2023/04/12 03:10:37;;;;;;;6.07;2.20;;;;;;;8.07;99.07;99961.88;4992419;28;20413;-90
2023/04/12 03:13:03;;;;;;;6.55;2.20;;;;;;;8.01;99.55;99943.44;4996208;28;20026;-90
2023/04/12 03:15:29;;;;;;;5.38;2.03;;;;;;;8.06;98.98;99946.97;4964257;28;20034;-89
2023/04/12 03:17:55;;;;;;;4.25;1.83;;;;;;;8.06;98.96;99932.94;4979059;28;20034;-89
2023/04/12 03:20:23;;;;;;;4.03;1.80;;;;;;;8.03;99.24;99928.53;4978520;28;20121;-90
2023/04/12 03:22:48;;;;;;;6.47;2.10;;;;;;;8.03;99.92;99936.44;4976708;28;20085;-90
2023/04/12 03:25:14;;;;;;;5.60;2.08;;;;;;;7.99;100.00;99925.00;4960497;28;20030;-91
2023/04/12 03:27:39;;;;;;;5.28;1.95;;;;;;;7.99;99.95;99913.59;4977148;28;20030;-90
2023/04/12 03:30:06;;;;;;;4.60;1.95;;;;;;;8.00;100.00;99921.50;4994380;28;20031;-90
2023/04/12 03:32:33;;;;;;;3.35;1.60;;;;;;;7.94;100.00;99916.22;4993959;28;20030;-90
2023/04/12 03:35:01;;;;;;;6.93;2.20;;;;;;;7.90;100.00;99903.03;4976477;28;20088;-90
2023/04/12 03:37:26;;;;;;;4.13;2.10;;;;;;;7.96;100.00;99913.56;4993828;28;20213;-90
2023/04/12 03:39:52;;;;;;;8.63;2.20;;;;;;;7.97;100.00;99900.44;4961275;28;20414;-90
2023/04/12 03:42:17;;;;;;;6.50;1.85;;;;;;;7.93;100.00;99910.94;4994642;28;20033;-90
2023/04/12 03:44:47;;;;;;;3.85;1.88;;;;;;;7.94;100.00;99896.91;4980736;28;20421;-91
2023/04/12 03:47:15;;;;;;;4.15;1.92;;;;;;;7.89;100.00;99882.88;4981206;28;20050;-89
2023/04/12 03:49:40;;;;;;;2.85;1.80;;;;;;;7.94;100.00;99904.81;4998763;28;20034;-89
2023/04/12 03:52:08;;;;;;;4.80;2.00;;;;;;;7.93;100.00;99896.03;4963944;28;20034;-90
2023/04/12 03:54:36;;;;;;;4.15;1.90;;;;;;;7.94;100.00;99889.03;4979811;28;20065;-90
2023/04/12 03:57:06;;;;;;;4.82;2.13;;;;;;;7.89;100.00;99882.88;4948008;28;20036;-90
2023/04/12 03:59:32;;;;;;;3.25;1.92;;;;;;;7.87;100.00;99863.53;4997148;28;20065;-90
2023/04/12 04:02:00;;;;;;;4.53;2.10;;;;;;;7.89;100.00;99860.06;4979889;28;20108;-90
2023/04/12 04:04:26;;;;;;;4.25;2.00;;;;;;;7.75;100.00;99830.16;4979493;28;20111;-91
2023/04/12 04:06:58;;;;;;;4.20;2.00;;;;;;;7.86;100.00;99856.53;4979723;28;20022;-91
2023/04/12 04:09:23;;;;;;;4.83;1.97;;;;;;;7.84;100.00;99840.75;4997661;28;20459;-91
2023/04/12 04:11:50;;;;;;;3.50;1.77;;;;;;;7.88;100.00;99839.00;4979245;28;20424;-90
2023/04/12 04:14:15;;;;;;;5.30;2.15;;;;;;;7.75;100.00;99817.91;4997211;28;20054;-90
2023/04/12 04:16:41;;;;;;;5.43;2.10;;;;;;;7.74;100.00;99810.88;4979505;28;20026;-90
2023/04/12 04:19:09;;;;;;;3.30;1.70;;;;;;;7.77;100.00;99810.03;4980144;28;20030;-90
2023/04/12 04:21:34;;;;;;;5.28;1.90;;;;;;;7.81;100.00;99819.69;4996636;28;20052;-91
2023/04/12 04:24:01;;;;;;;3.53;2.05;;;;;;;7.79;100.00;99818.78;4996911;28;20030;-90
2023/04/12 04:26:37;;;;;;;6.05;2.13;;;;;;;7.77;100.00;99815.28;4979393;28;20072;-90
2023/04/12 04:29:05;;;;;;;3.75;1.85;;;;;;;7.76;100.00;99803.03;4997396;28;20030;-89
2023/04/12 04:31:35;;;;;;;4.53;2.03;;;;;;;7.76;100.00;99810.91;4979007;28;20109;-89
2023/04/12 04:34:02;;;;;;;2.88;1.80;;;;;;;7.70;100.00;99793.31;4996939;28;20054;-88
2023/04/12 04:36:28;;;;;;;3.58;2.20;;;;;;;7.73;100.00;99798.59;4997102;28;20030;-88
2023/04/12 04:38:57;;;;;;;4.97;1.92;;;;;;;7.67;100.00;99780.19;4996468;28;20030;-89
2023/04/12 04:41:23;;;;;;;5.65;1.80;;;;;;;7.67;100.00;99779.31;4979838;28;20454;-88
2023/04/12 04:43:52;;;;;;;6.18;2.20;;;;;;;7.77;100.00;99794.25;4996388;28;20109;-89
2023/04/12 04:46:20;;;;;;;5.03;2.10;;;;;;;7.77;100.00;99796.88;4978949;28;20086;-88
2023/04/12 04:48:50;;;;;;;3.85;1.92;;;;;;;7.81;100.00;99792.53;4962930;28;20054;-88
2023/04/12 04:51:16;;;;;;;6.63;2.10;;;;;;;7.71;100.00;99762.69;4996193;28;20022;-88
2023/04/12 04:53:42;;;;;;;4.90;2.35;;;;;;;7.72;100.00;99774.94;4978538;28;20034;-88
2023/04/12 04:56:08;;;;;;;3.25;2.00;;;;;;;7.81;100.00;99784.63;4978737;28;20104;-88
2023/04/12 04:58:34;;;;;;;5.60;2.25;;;;;;;7.67;100.00;99774.94;4995899;28;20034;-88
2023/04/12 05:01:00;;;;;;;6.82;2.10;;;;;;;7.73;100.00;99774.94;4996128;28;20022;-87
2023/04/12 05:03:28;;;;;;;5.25;2.10;;;;;;;7.73;100.00;99768.81;4978931;28;20022;-87
2023/04/12 05:05:55;;;;;;;3.78;2.30;;;;;;;7.77;100.00;99768.81;4996723;28;20022;-88
2023/04/12 05:08:23;;;;;;;4.00;1.95;;;;;;;7.87;100.00;99782.00;4996068;28;20026;-87
2023/04/12 05:10:51;;;;;;;3.42;2.00;;;;;;;7.86;100.00;99780.25;4978516;28;20038;-87
2023/04/12 05:13:17;;;;;;;5.18;2.30;;;;;;;7.83;100.00;99772.34;4979076;28;20049;-87
2023/04/12 05:15:42;;;;;;;3.88;2.20;;;;;;;7.82;100.00;99766.22;4978331;28;20031;-88
2023/04/12 05:18:08;;;;;;;4.10;2.05;;;;;;;7.86;100.00;99772.38;4978792;28;20029;-88
2023/04/12 05:20:33;;;;;;;4.03;2.13;;;;;;;7.91;100.00;99774.13;4995805;28;20033;-88
2023/04/12 05:23:00;;;;;;;4.30;2.20;;;;;;;7.90;100.00;99769.75;4978361;28;20451;-88
2023/04/12 05:25:25;;;;;;;3.45;2.10;;;;;;;7.82;100.00;99757.44;4995719;28;20085;-88
2023/04/12 05:27:50;;;;;;;4.00;2.10;;;;;;;7.88;100.00;99763.63;4978120;28;20030;-88
2023/04/12 05:30:16;;;;;;;4.43;2.20;;;;;;;7.91;100.00;99768.00;4961952;28;20130;-87
2023/04/12 05:32:41;;;;;;;7.00;2.50;;;;;;;7.82;100.00;99757.44;4977885;28;20036;-87
2023/04/12 05:35:07;;;;;;;5.72;2.33;;;;;;;7.91;100.00;99762.75;4995543;28;20027;-87
2023/04/12 05:37:32;;;;;;;5.28;2.10;;;;;;;7.92;100.00;99764.50;4962103;28;20034;-87
2023/04/12 05:39:58;;;;;;;4.43;2.10;;;;;;;7.94;100.00;99768.91;4995495;28;20026;-87
2023/04/12 05:42:23;;;;;;;6.55;2.50;;;;;;;7.96;100.00;99761.88;4978125;28;20459;-88
2023/04/12 05:44:49;;;;;;;3.85;2.35;;;;;;;7.91;100.00;99742.56;4962311;28;20035;-88
2023/04/12 05:47:15;;;;;;;3.95;2.17;;;;;;;8.01;100.00;99759.31;4978131;28;20057;-87
2023/04/12 05:49:40;;;;;;;5.25;2.35;;;;;;;7.95;100.00;99749.59;4962112;28;20498;-89
2023/04/12 05:52:06;;;;;;;4.40;2.25;;;;;;;8.02;100.00;99759.28;4977432;28;20038;-87
2023/04/12 05:54:31;;;;;;;2.58;1.98;;;;;;;8.02;100.00;99754.03;4977818;28;20478;-87
2023/04/12 05:56:59;;;;;;;3.40;2.05;;;;;;;8.02;100.00;99746.13;4995154;28;20114;-87
2023/04/12 05:59:24;;;;;;;3.30;2.17;;;;;;;8.08;100.00;99752.28;4978142;28;20033;-87
2023/04/12 06:01:50;;;;;;;2.95;2.10;;;;;;;8.09;100.00;99752.28;4961705;28;20073;-87
2023/04/12 06:04:15;;;;;;;4.50;2.20;;;;;;;8.07;100.00;99743.53;4961868;28;20057;-87
2023/04/12 06:06:42;;;;;;;4.63;2.30;;;;;;;8.13;100.00;99747.91;4977285;28;20031;-87
2023/04/12 06:09:08;;;;;;;5.25;2.47;;;;;;;8.11;100.00;99742.66;4994582;28;20117;-87
2023/04/12 06:11:34;;;;;;;4.18;2.35;;;;;;;8.12;100.00;99747.03;4994871;28;20030;-87
2023/04/12 06:14:00;;;;;;;4.55;2.47;;;;;;;8.18;100.00;99751.44;4961076;28;20030;-87
2023/04/12 06:16:26;;;;;;;3.95;2.20;;;;;;;8.17;100.00;99733.88;4994493;28;20034;-87
2023/04/12 06:18:51;;;;;;;4.95;2.38;;;;;;;8.21;100.00;99741.78;4977314;28;20038;-87
2023/04/12 06:21:18;;;;;;;3.55;2.20;;;;;;;8.25;100.00;99737.41;4994888;28;20034;-87
2023/04/12 06:23:43;;;;;;;3.25;1.98;;;;;;;8.23;100.00;99736.56;4995114;28;20435;-87
2023/04/12 06:26:09;;;;;;;2.75;2.20;;;;;;;8.25;100.00;99743.56;4994916;28;20036;-87
2023/04/12 06:28:34;;;;;;;5.00;2.22;;;;;;;8.25;100.00;99733.03;4994737;28;20471;-87
2023/04/12 06:31:00;;;;;;;4.13;2.00;;;;;;;8.29;100.00;99736.56;4976840;28;20048;-87
2023/04/12 06:33:26;;;;;;;4.68;2.30;;;;;;;8.29;100.00;99723.41;4994441;28;20113;-87
2023/04/12 06:35:51;;;;;;;3.30;2.17;;;;;;;8.26;100.00;99718.13;4994491;28;20093;-87
2023/04/12 06:38:17;;;;;;;6.78;2.65;;;;;;;8.29;100.00;99721.63;4976901;28;20473;-87
2023/04/12 06:40:43;;;;;;;5.90;2.40;;;;;;;8.36;100.00;99729.56;4994429;28;20030;-87
2023/04/12 06:43:08;;;;;;;6.28;2.50;;;;;;;8.34;100.00;99721.66;4976945;28;20040;-87
2023/04/12 06:45:34;;;;;;;5.50;2.60;;;;;;;8.39;100.00;99726.94;4977791;28;20030;-87
2023/04/12 06:47:59;;;;;;;4.40;2.70;;;;;;;8.42;100.00;99725.19;4976665;28;20517;-87
2023/04/12 06:50:25;;;;;;;5.30;2.63;;;;;;;8.40;100.00;99719.06;4976932;28;20125;-87
2023/04/12 06:52:50;;;;;;;4.75;3.00;;;;;;;8.42;100.00;99719.94;4994451;28;20026;-87
2023/04/12 06:55:16;;;;;;;7.40;2.80;;;;;;;8.47;100.00;99725.19;4994579;28;20131;-87
2023/04/12 06:57:43;;;;;;;3.92;2.60;;;;;;;8.45;100.00;99722.59;4994602;28;20059;-87
2023/04/12 07:00:09;;;;;;;5.13;2.90;;;;;;;8.49;100.00;99726.09;4976978;28;20038;-87
2023/04/12 07:02:35;;;;;;;7.43;2.72;;;;;;;8.52;100.00;99731.34;4993136;28;20521;-87
2023/04/12 07:05:00;;;;;;;5.47;2.60;;;;;;;8.56;100.00;99737.50;4976836;28;20026;-87
2023/04/12 07:07:26;;;;;;;4.55;2.80;;;;;;;8.60;100.00;99737.50;4994025;28;20420;-87
2023/04/12 07:09:51;;;;;;;6.60;3.10;;;;;;;8.61;100.00;99741.91;4994156;28;20030;-87
2023/04/12 07:12:17;;;;;;;6.72;3.35;;;;;;;8.66;100.00;99741.91;4977178;28;20431;-87
2023/04/12 07:14:42;;;;;;;4.68;2.92;;;;;;;8.62;100.00;99724.34;4994329;28;20356;-87
2023/04/12 07:17:08;;;;;;;5.72;3.05;;;;;;;8.66;100.00;99728.75;4960224;28;20042;-87
2023/04/12 07:19:33;;;;;;;7.90;3.10;;;;;;;8.73;100.00;99730.50;4980071;28;20086;-87
2023/04/12 07:21:59;;;;;;;5.55;3.10;;;;;;;8.70;100.00;99725.25;4980831;28;20100;-87
2023/04/12 07:24:25;;;;;;;5.07;2.90;;;;;;;8.80;100.00;99739.28;4965312;28;20113;-87
2023/04/12 07:26:56;;;;;;;5.65;3.25;;;;;;;8.84;100.00;99735.78;4981239;28;20068;-86
2023/04/12 07:29:22;;;;;;;5.97;3.38;;;;;;;8.84;100.00;99735.78;4997823;28;20030;-87
2023/04/12 07:31:47;;;;;;;4.75;3.05;;;;;;;8.89;100.00;99740.16;4997980;28;20346;-86
2023/04/12 07:34:12;;;;;;;6.57;3.05;;;;;;;8.83;100.00;99721.72;4997775;28;20083;-88
2023/04/12 07:36:38;;;;;;;5.80;3.05;;;;;;;8.90;100.00;99734.00;4980370;28;20035;-86
2023/04/12 07:39:04;;;;;;;6.72;3.17;;;;;;;9.00;100.00;99742.78;4998018;28;20041;-88
2023/04/12 07:41:29;;;;;;;6.25;3.28;;;;;;;9.03;100.00;99734.88;4997859;28;20035;-88
2023/04/12 07:43:55;;;;;;;7.75;3.58;;;;;;;9.06;100.00;99720.81;4997721;28;20038;-88
2023/04/12 07:46:20;;;;;;;7.03;3.35;;;;;;;9.12;100.00;99724.34;4981108;28;20034;-90
2023/04/12 07:48:46;;;;;;;7.63;3.30;;;;;;;9.17;100.00;99730.47;4976989;28;20464;-88
2023/04/12 07:51:11;;;;;;;7.63;3.45;;;;;;;9.17;100.00;99713.78;4984902;28;20110;-88
2023/04/12 07:53:40;;;;;;;6.20;3.30;;;;;;;9.24;100.00;99715.50;4995639;28;20023;-87
2023/04/12 07:56:06;;;;;;;5.47;3.15;;;;;;;9.28;100.00;99714.63;5011385;28;20094;-88
2023/04/12 07:58:32;;;;;;;8.73;3.08;;;;;;;9.32;100.00;99712.88;4992830;28;20041;-87
2023/04/12 08:00:58;;;;;;;8.65;3.75;;;;;;;9.37;100.00;99709.31;4986302;28;20034;-88
2023/04/12 08:03:23;;;;;;;7.32;3.33;;;;;;;9.42;100.00;99704.94;4979507;28;20137;-88
2023/04/12 08:05:52;;;;;;;5.53;3.30;;;;;;;9.46;100.00;99716.34;4960836;28;20030;-88
2023/04/12 08:08:19;;;;;;;8.38;3.33;;;;;;;9.50;100.00;99726.88;4978035;28;20078;-87
2023/04/12 08:10:45;;;;;;;8.30;3.17;;;;;;;9.53;100.00;99716.31;4977635;28;20113;-88
2023/04/12 08:13:10;;;;;;;10.93;3.58;;;;;;;9.50;100.00;99707.53;4992487;28;20027;-87
2023/04/12 08:15:36;;;;;;;9.43;3.50;;;;;;;9.58;100.00;99725.97;4976814;28;20035;-87
2023/04/12 08:18:02;;;;;;;7.90;3.50;;;;;;;9.59;100.00;99730.34;4977682;28;20031;-90
2023/04/12 08:20:30;;;;;;;9.07;3.55;;;;;;;9.60;100.00;99732.13;4977478;28;20074;-89
2023/04/12 08:22:56;;;;;;;11.82;3.67;;;;;;;9.56;100.00;99733.03;4977327;28;20047;-89
2023/04/12 08:25:21;;;;;;;8.82;2.85;;;;;;;9.54;100.00;99735.66;4977478;28;20522;-88
2023/04/12 08:27:48;;;;;;;6.82;3.42;;;;;;;9.46;100.00;99733.06;4993004;28;20027;-90
2023/04/12 08:30:16;;;;;;;6.10;2.85;;;;;;;9.51;100.00;99746.22;4976805;28;20030;-90
2023/04/12 08:32:42;;;;;;;7.15;3.30;;;;;;;9.53;100.00;99744.44;4976702;28;20027;-89
2023/04/12 08:35:08;;;;;;;10.68;3.50;;;;;;;9.53;100.00;99726.00;4992304;28;20081;-88
2023/04/12 08:37:34;;;;;;;7.85;3.00;;;;;;;9.50;100.00;99737.41;4976118;28;20039;-90
2023/04/12 08:40:03;;;;;;;9.32;2.92;;;;;;;9.47;100.00;99733.94;4977246;28;20034;-89
2023/04/12 08:42:30;;;;;;;8.05;2.90;;;;;;;9.50;99.21;99736.53;4977167;28;20034;-90
2023/04/12 08:44:58;;;;;;;10.23;3.05;;;;;;;9.51;99.52;99727.78;4977036;28;20031;-91
2023/04/12 08:47:24;;;;;;;8.55;2.90;;;;;;;9.53;100.00;99718.97;4975767;28;20107;-89
2023/04/12 08:49:49;;;;;;;10.50;3.30;;;;;;;9.60;100.00;99714.56;4995716;28;20078;-92
2023/04/12 08:52:15;;;;;;;11.90;3.40;;;;;;;9.69;100.00;99713.63;4996867;28;20030;-90
2023/04/12 08:54:41;;;;;;;12.32;3.97;;;;;;;9.90;100.00;99725.88;4979013;28;20029;-91
2023/04/12 08:57:07;;;;;;;12.02;3.45;;;;;;;10.07;99.78;99723.16;4996123;28;20114;-92
2023/04/12 08:59:37;;;;;;;9.88;3.58;;;;;;;10.26;100.00;99728.31;4996449;28;20035;-92
2023/04/12 09:02:03;;;;;;;10.95;3.70;;;;;;;10.40;99.71;99720.31;4979443;28;20041;-91
2023/04/12 09:04:28;;;;;;;10.57;3.38;;;;;;;10.66;98.23;99732.47;4995937;28;20030;-91
2023/04/12 09:06:54;;;;;;;16.95;4.47;;;;;;;10.76;95.65;99723.59;4996016;28;20023;-89
2023/04/12 09:09:39;;;;;;;11.85;3.95;;;;;;;10.93;96.72;99710.22;4996097;28;20470;-92
2023/04/12 09:12:09;;;;;;;12.95;4.78;;;;;;;11.26;94.92;99715.22;4996286;28;20130;-88
2023/04/12 09:14:35;;;;;;;11.65;4.50;;;;;;;11.68;97.61;99707.66;4996014;28;20109;-89
2023/04/12 09:17:00;;;;;;;10.35;4.30;;;;;;;11.92;91.71;99714.47;4995770;28;20113;-86
2023/04/12 09:19:31;;;;;;;14.88;4.40;;;;;;;12.07;90.87;99697.47;4962197;28;20129;-91
2023/04/12 09:21:57;;;;;;;14.57;5.00;;;;;;;12.27;91.15;99697.22;4995732;28;20030;-89
2023/04/12 09:24:23;;;;;;;16.45;5.30;;;;;;;12.68;93.65;99706.31;4996333;28;20435;-86
2023/04/12 09:27:04;;;;;;;14.00;4.80;;;;;;;12.68;84.84;99693.94;4995732;28;20037;-91
2023/04/12 09:29:31;;;;;;;15.53;5.50;;;;;;;12.78;88.99;99705.25;4980700;28;20490;-89
2023/04/12 09:32:01;;;;;;;15.18;5.03;;;;;;;12.75;87.59;99692.03;4995473;28;20026;-89
2023/04/12 09:34:28;;;;;;;18.90;5.70;;;;;;;12.99;88.18;99704.00;4995536;28;20109;-90
2023/04/12 09:36:53;;;;;;;11.75;5.20;;;;;;;13.25;85.08;99698.28;4995257;28;20030;-90
2023/04/12 09:39:19;;;;;;;18.08;5.65;;;;;;;13.51;82.71;99697.78;4995166;28;20081;-89
2023/04/12 09:41:44;;;;;;;16.42;5.50;;;;;;;13.63;80.71;99705.50;4978571;28;20491;-89
2023/04/12 09:44:28;;;;;;;14.77;5.45;;;;;;;13.52;79.68;99699.50;4990101;28;20112;-89
2023/04/12 09:46:54;;;;;;;22.10;5.28;;;;;;;13.31;78.13;99694.63;5000491;28;20109;-89
2023/04/12 09:49:36;;;;;;;18.15;4.70;;;;;;;13.00;78.48;99681.88;4995061;28;20056;-90
2023/04/12 09:52:01;;;;;;;26.08;5.30;;;;;;;12.82;78.16;99688.41;4995065;28;20022;-89
2023/04/12 09:54:27;;;;;;;17.05;5.18;;;;;;;12.73;79.55;99683.25;4995279;28;20488;-89
2023/04/12 09:56:53;;;;;;;18.52;4.90;;;;;;;12.74;79.87;99687.66;4961991;28;20057;-89
2023/04/12 09:59:25;;;;;;;19.58;4.85;;;;;;;12.75;79.22;99677.00;4994110;28;20035;-90
2023/04/12 10:01:52;;;;;;;23.27;5.22;;;;;;;12.82;79.69;99683.09;4995411;28;20026;-89
2023/04/12 10:04:18;;;;;;;19.05;5.43;;;;;;;12.94;80.61;99676.72;4995008;28;20034;-89
2023/04/12 10:06:45;;;;;;;17.27;4.90;;;;;;;13.07;78.85;99685.31;4977697;28;20117;-89
2023/04/12 10:09:11;;;;;;;18.67;4.70;;;;;;;13.06;79.28;99668.53;4994738;28;20038;-90
2023/04/12 10:11:40;;;;;;;19.20;4.05;;;;;;;13.08;77.38;99663.19;4994838;28;20114;-89
2023/04/12 10:14:06;;;;;;;20.90;4.47;;;;;;;13.04;75.37;99680.94;4978031;28;20038;-90
2023/04/12 10:16:33;;;;;;;26.67;5.03;;;;;;;12.96;75.78;99693.44;4986525;28;20110;-91
2023/04/12 10:19:01;;;;;;;21.35;4.68;;;;;;;12.88;74.36;99698.00;5007353;28;20113;-88
2023/04/12 10:21:26;;;;;;;13.00;3.83;;;;;;;12.82;75.04;99706.09;5005027;28;20057;-87
2023/04/12 10:23:52;;;;;;;16.95;4.20;;;;;;;12.64;73.81;99699.31;4990801;28;20042;-88
2023/04/12 10:26:17;;;;;;;17.42;4.13;;;;;;;12.53;72.77;99702.13;4977513;28;20032;-88
2023/04/12 10:28:46;;;;;;;18.00;4.10;;;;;;;12.47;74.45;99692.50;4994803;28;20041;-89
2023/04/12 10:31:29;;;;;;;14.70;4.30;;;;;;;12.46;75.46;99692.50;4961519;28;20085;-89
2023/04/12 10:33:54;;;;;;;;;;;;;;;12.47;76.40;99688.97;4978223;28;20032;-90
2023/04/12 10:36:56;;;;;;;10.85;3.65;;;;;;;12.33;76.17;99686.50;4977779;28;19992;-89
2023/04/12 10:40:13;;;;;;;17.02;3.63;;;;;;;12.23;75.18;99692.84;4979698;28;20030;-87
2023/04/12 10:42:38;;;;;;;15.88;3.50;;;;;;;12.10;72.36;99678.91;4955630;28;20093;-88
2023/04/12 10:45:25;;;;;;;18.83;4.20;;;;;;;12.25;73.89;99704.31;4994731;28;20367;-88
2023/04/12 10:47:50;;;;;;;20.10;3.42;;;;;;;12.20;72.18;99693.75;4994237;28;20026;-89
2023/04/12 10:50:29;;;;;;;13.68;3.40;;;;;;;12.15;71.16;99694.72;4994583;28;20030;-89
2023/04/12 10:53:14;;;;;;;18.75;3.95;;;;;;;12.12;71.41;99716.84;4976979;28;20026;-89
2023/04/12 10:55:41;;;;;;;16.45;3.35;;;;;;;11.97;68.64;99706.47;4994244;28;20022;-90
2023/04/12 10:58:07;;;;;;;14.70;3.42;;;;;;;11.91;68.72;99715.38;4994199;28;20045;-89
2023/04/12 11:00:54;;;;;;;12.52;3.00;;;;;;;11.69;69.66;99714.72;4993801;28;20375;-87
2023/04/12 11:03:20;;;;;;;17.92;3.58;;;;;;;11.45;73.43;99712.34;4979646;28;20018;-86
2023/04/12 11:06:02;;;;;;;12.70;3.22;;;;;;;11.22;76.46;99709.94;4978071;28;20033;-87
2023/04/12 11:08:36;;;;;;;17.20;3.50;;;;;;;10.99;77.92;99718.97;4976825;28;20053;-88
2023/04/12 11:11:10;;;;;;;15.05;3.30;;;;;;;10.87;80.19;99710.28;4994405;28;20281;-87
2023/04/12 11:13:38;;;;;;;17.13;3.50;;;;;;;10.88;80.03;99698.84;4993164;28;20111;-89
2023/04/12 11:16:05;;;;;;;17.65;3.83;;;;;;;11.01;81.14;99703.13;4976438;28;20362;-89
2023/04/12 11:18:33;;;;;;;16.23;3.80;;;;;;;11.10;81.35;99708.31;4993724;28;20061;-89
2023/04/12 11:21:00;;;;;;;22.73;4.40;;;;;;;11.19;81.53;99712.63;4994143;28;20029;-90
2023/04/12 11:23:25;;;;;;;19.98;4.40;;;;;;;11.17;81.07;99717.91;4976502;28;20029;-90
2023/04/12 11:25:54;;;;;;;19.35;5.03;;;;;;;11.04;82.91;99711.88;4976300;28;20022;-89
2023/04/12 11:28:21;;;;;;;12.88;4.32;;;;;;;11.03;84.16;99704.84;4976645;28;20501;-86
2023/04/12 11:30:56;;;;;;;17.67;4.60;;;;;;;11.15;85.00;99725.00;4993802;28;20049;-86
2023/04/12 11:33:36;;;;;;;18.35;5.55;;;;;;;11.01;84.46;99706.63;4976618;28;20476;-86
2023/04/12 11:36:04;;;;;;;16.48;5.03;;;;;;;10.99;85.56;99712.81;4976807;28;20154;-87
2023/04/12 11:38:31;;;;;;;17.83;4.95;;;;;;;10.98;86.40;99703.13;4994373;28;20345;-88